createdAt,value
2018-06-21T00:01:08.669Z,18.32
2018-06-21T00:07:14.770Z,18.10
2018-06-21T00:13:20.589Z,18.08
2018-06-21T00:19:26.473Z,18.20
2018-06-21T00:25:32.282Z,18.49
2018-06-21T00:31:38.044Z,18.46
2018-06-21T00:37:43.741Z,18.55
2018-06-21T00:43:49.844Z,18.53
2018-06-21T00:49:55.729Z,18.39
2018-06-21T00:56:20.107Z,18.22
2018-06-21T01:02:26.265Z,18.32
2018-06-21T01:08:31.982Z,18.02
2018-06-21T01:14:37.961Z,18.15
2018-06-21T01:20:43.668Z,18.32
2018-06-21T01:26:49.701Z,18.30
2018-06-21T01:32:55.741Z,18.24
2018-06-21T01:39:01.574Z,18.12
2018-06-21T01:45:07.315Z,18.31
2018-06-21T01:51:13.225Z,18.02
2018-06-21T01:57:19.276Z,18.13
2018-06-21T02:03:25.799Z,18.09
2018-06-21T02:09:31.504Z,17.72
2018-06-21T02:15:36.868Z,17.74
2018-06-21T02:21:42.583Z,17.59
2018-06-21T02:27:48.430Z,17.26
2018-06-21T02:33:54.915Z,17.02
2018-06-21T02:40:00.817Z,16.86
2018-06-21T02:46:06.943Z,16.81
2018-06-21T02:52:12.752Z,16.70
2018-06-21T02:58:18.453Z,16.51
2018-06-21T03:04:24.916Z,16.53
2018-06-21T03:10:30.682Z,16.53
2018-06-21T03:16:36.582Z,16.39
2018-06-21T03:22:42.281Z,16.43
2018-06-21T03:28:48.008Z,16.49
2018-06-21T03:34:54.149Z,16.56
2018-06-21T03:40:59.885Z,16.69
2018-06-21T03:47:05.658Z,16.36
2018-06-21T03:53:11.585Z,16.47
2018-06-21T03:59:17.349Z,16.66
2018-06-21T04:05:25.308Z,16.99
2018-06-21T04:11:31.038Z,17.29
2018-06-21T04:17:36.831Z,17.65
2018-06-21T04:23:42.757Z,17.92
2018-06-21T04:29:48.556Z,17.87
2018-06-21T04:35:55.393Z,18.03
2018-06-21T04:42:01.178Z,17.92
2018-06-21T04:48:07.029Z,18.26
2018-06-21T04:54:12.777Z,18.20
2018-06-21T05:00:18.533Z,18.38
2018-06-21T05:06:24.385Z,18.74
2018-06-21T05:12:30.090Z,18.96
2018-06-21T05:18:35.832Z,19.02
2018-06-21T05:24:41.771Z,19.22
2018-06-21T05:30:47.527Z,19.60
2018-06-21T05:36:53.609Z,20.16
2018-06-21T05:43:00.339Z,20.61
2018-06-21T05:49:06.372Z,21.06
2018-06-21T05:55:12.061Z,21.39
2018-06-21T06:01:17.782Z,21.72
2018-06-21T06:07:24.498Z,21.89
2018-06-21T06:13:30.227Z,22.26
2018-06-21T06:19:35.876Z,22.42
2018-06-21T06:25:41.611Z,22.49
2018-06-21T06:31:47.345Z,22.63
2018-06-21T06:37:53.737Z,23.27
2018-06-21T06:43:59.470Z,23.88
2018-06-21T06:50:05.295Z,23.95
2018-06-21T06:56:11.009Z,23.99
2018-06-21T07:02:16.703Z,24.08
2018-06-21T07:08:23.501Z,23.72
2018-06-21T07:14:29.273Z,23.97
2018-06-21T07:20:34.926Z,23.64
2018-06-21T07:26:40.555Z,23.52
2018-06-21T07:32:46.196Z,23.53
2018-06-21T07:38:52.122Z,23.55
2018-06-21T07:44:57.974Z,24.05
2018-06-21T07:51:03.669Z,23.52
2018-06-21T07:57:09.323Z,23.67
2018-06-21T08:03:14.997Z,23.48
2018-06-21T08:09:21.143Z,23.28
2018-06-21T08:15:26.759Z,23.52
2018-06-21T08:21:32.663Z,23.58
2018-06-21T08:27:38.433Z,23.29
2018-06-21T08:33:44.503Z,22.80
2018-06-21T08:39:50.575Z,22.53
2018-06-21T08:45:56.124Z,21.97
2018-06-21T08:52:02.130Z,21.48
2018-06-21T08:58:07.885Z,19.06
2018-06-21T09:04:13.730Z,17.25
2018-06-21T09:10:19.494Z,16.26
2018-06-21T09:16:25.191Z,15.93
2018-06-21T09:22:31.434Z,15.86
2018-06-21T09:28:37.228Z,15.78
2018-06-21T09:34:42.902Z,15.87
2018-06-21T09:40:54.268Z,16.15
2018-06-21T09:47:05.271Z,16.11
2018-06-21T09:53:10.867Z,15.80
2018-06-21T09:59:16.640Z,16.07
2018-06-21T10:05:22.625Z,15.91
2018-06-21T10:11:28.336Z,15.51
2018-06-21T10:17:34.237Z,15.39
2018-06-21T10:23:39.890Z,15.47
2018-06-21T10:29:45.537Z,15.98
2018-06-21T10:35:52.565Z,16.24
2018-06-21T10:41:58.260Z,16.23
2018-06-21T10:48:04.045Z,17.49
2018-06-21T10:54:09.838Z,18.11
2018-06-21T11:00:15.882Z,18.21
2018-06-21T11:06:22.119Z,18.29
2018-06-21T11:12:28.162Z,18.56
2018-06-21T11:18:33.872Z,18.26
2018-06-21T11:24:39.599Z,18.02
2018-06-21T11:30:45.537Z,17.89
2018-06-21T11:36:52.221Z,18.45
2018-06-21T11:42:58.001Z,18.68
2018-06-21T11:49:03.705Z,18.61
2018-06-21T11:55:09.389Z,17.49
2018-06-21T12:01:15.212Z,15.51
2018-06-21T12:07:21.061Z,15.17
2018-06-21T12:13:26.719Z,16.46
2018-06-21T12:19:32.409Z,18.34
2018-06-21T12:25:38.126Z,19.79
2018-06-21T12:31:43.815Z,19.23
2018-06-21T12:37:49.715Z,18.80
2018-06-21T12:43:55.681Z,17.13
2018-06-21T12:50:01.473Z,16.24
2018-06-21T12:56:07.123Z,17.59
2018-06-21T13:02:12.776Z,18.60
2018-06-21T13:08:29.269Z,19.49
2018-06-21T13:14:34.883Z,19.94
2018-06-21T13:20:40.605Z,20.12
2018-06-21T13:26:46.291Z,20.81
2018-06-21T13:32:52.493Z,20.13
2018-06-21T13:38:58.392Z,18.74
2018-06-21T13:45:04.890Z,19.60
2018-06-21T13:51:10.580Z,19.92
2018-06-21T13:57:16.261Z,20.01
2018-06-21T14:03:22.692Z,19.94
2018-06-21T14:09:28.505Z,18.68
2018-06-21T14:15:34.194Z,19.55
2018-06-21T14:21:39.873Z,19.73
2018-06-21T14:27:46.453Z,20.05
2018-06-21T14:33:52.668Z,20.52
2018-06-21T14:39:58.376Z,20.04
2018-06-21T14:46:04.006Z,20.10
2018-06-21T14:52:09.707Z,20.17
2018-06-21T14:58:15.490Z,20.08
2018-06-21T15:04:22.391Z,20.15
2018-06-21T15:10:28.068Z,19.55
2018-06-21T15:16:34.012Z,18.54
2018-06-21T15:22:39.653Z,18.21
2018-06-21T15:34:41.255Z,19.64
2018-06-21T15:40:47.074Z,19.49
2018-06-21T15:46:54.059Z,19.73
2018-06-21T15:52:59.829Z,18.70
2018-06-21T15:59:05.572Z,17.80
2018-06-21T16:05:11.399Z,17.64
2018-06-21T16:11:17.043Z,17.67
2018-06-21T16:17:23.235Z,17.63
2018-06-21T16:23:28.894Z,17.56
2018-06-21T16:29:34.568Z,17.24
2018-06-21T16:35:40.315Z,16.95
2018-06-21T16:41:46.431Z,16.86
2018-06-21T16:47:53.189Z,17.01
2018-06-21T16:53:59.233Z,16.72
2018-06-21T17:00:05.224Z,16.51
2018-06-21T17:06:11.289Z,16.51
2018-06-21T17:12:17.153Z,16.42
2018-06-21T17:18:25.179Z,16.43
2018-06-21T17:24:30.943Z,16.00
2018-06-21T17:30:36.745Z,16.39
2018-06-21T17:36:42.621Z,16.21
2018-06-21T17:42:49.187Z,16.06
2018-06-21T17:48:55.059Z,16.34
2018-06-21T17:55:00.562Z,16.33
2018-06-21T18:01:06.403Z,16.03
2018-06-21T18:07:12.180Z,15.93
2018-06-21T18:13:17.854Z,15.83
2018-06-21T18:19:23.981Z,17.33
2018-06-21T18:25:29.782Z,18.65
2018-06-21T18:31:35.407Z,17.66
2018-06-21T18:37:41.147Z,15.99
2018-06-21T18:43:46.780Z,16.31
2018-06-21T18:49:52.983Z,16.02
2018-06-21T18:55:58.669Z,15.53
2018-06-21T19:02:04.641Z,15.01
2018-06-21T19:08:15.749Z,14.45
2018-06-21T19:14:22.873Z,14.11
2018-06-21T19:20:28.612Z,13.98
2018-06-21T19:26:34.738Z,13.85
2018-06-21T19:32:40.377Z,13.70
2018-06-21T19:38:46.024Z,13.54
2018-06-21T19:44:52.913Z,11.33
2018-06-21T19:50:58.676Z,10.48
2018-06-21T19:57:04.354Z,10.26
2018-06-21T20:03:10.158Z,10.10
2018-06-21T20:09:15.902Z,10.14
2018-06-21T20:15:21.761Z,10.08
2018-06-21T20:21:27.620Z,9.88
2018-06-21T20:27:33.377Z,10.01
2018-06-21T20:33:39.594Z,9.99
2018-06-21T20:39:45.550Z,9.93
2018-06-21T20:45:51.955Z,9.94
2018-06-21T20:51:57.823Z,9.93
2018-06-21T20:58:03.427Z,10.11
2018-06-21T21:04:09.514Z,10.15
2018-06-21T21:10:16.563Z,10.12
2018-06-21T21:16:23.351Z,10.07
2018-06-21T21:22:28.993Z,10.15
2018-06-21T21:28:34.716Z,10.21
2018-06-21T21:34:40.295Z,10.12
2018-06-21T21:40:45.976Z,10.20
2018-06-21T21:46:52.392Z,10.17
2018-06-21T21:52:58.231Z,10.19
2018-06-21T21:59:03.947Z,10.33
2018-06-21T22:05:09.649Z,10.53
2018-06-21T22:11:15.686Z,10.46
2018-06-21T22:17:22.839Z,10.36
2018-06-21T22:23:28.476Z,10.44
2018-06-21T22:29:34.237Z,10.36
2018-06-21T22:35:39.888Z,10.39
2018-06-21T22:41:45.941Z,10.42
2018-06-21T22:47:54.076Z,10.40
2018-06-21T22:53:59.944Z,10.22
2018-06-21T23:00:05.964Z,10.22
2018-06-21T23:06:11.339Z,10.24
2018-06-21T23:12:17.015Z,10.08
2018-06-21T23:19:32.532Z,9.92
2018-06-21T23:25:38.399Z,10.07
2018-06-21T23:31:44.238Z,10.09
2018-06-21T23:37:50.186Z,10.10
2018-06-21T23:43:56.315Z,10.12
2018-06-21T23:50:02.015Z,10.14
2018-06-21T23:56:07.734Z,10.20
